sensor_id;sensor_type;location;lat;lon;timestamp;temperature;humidity
49052;DHT22;34866;48.670;18.260;2022-08-19T00:01:23;537.80;2406.40
49052;DHT22;34866;48.670;18.260;2022-08-19T00:03:50;537.80;2406.40
49052;DHT22;34866;48.670;18.260;2022-08-19T00:06:16;537.90;2406.40
49052;DHT22;34866;48.670;18.260;2022-08-19T00:08:42;538.00;2406.40
49052;DHT22;34866;48.670;18.260;2022-08-19T00:11:09;537.80;2406.40
49052;DHT22;34866;48.670;18.260;2022-08-19T00:13:35;537.90;2406.40
49052;DHT22;34866;48.670;18.260;2022-08-19T00:16:02;537.90;2406.40
49052;DHT22;34866;48.670;18.260;2022-08-19T00:18:29;537.80;2406.40
49052;DHT22;34866;48.670;18.260;2022-08-19T00:20:55;537.80;2406.40
49052;DHT22;34866;48.670;18.260;2022-08-19T00:23:21;537.90;2406.40
49052;DHT22;34866;48.670;18.260;2022-08-19T00:25:48;537.90;2406.40
49052;DHT22;34866;48.670;18.260;2022-08-19T00:28:15;538.00;2406.40
49052;DHT22;34866;48.670;18.260;2022-08-19T00:30:41;538.00;2406.40
49052;DHT22;34866;48.670;18.260;2022-08-19T00:33:10;538.20;2406.40
49052;DHT22;34866;48.670;18.260;2022-08-19T00:35:38;538.00;2406.40
49052;DHT22;34866;48.670;18.260;2022-08-19T00:38:23;537.90;2406.40
49052;DHT22;34866;48.670;18.260;2022-08-19T00:40:50;538.00;2406.40
49052;DHT22;34866;48.670;18.260;2022-08-19T00:43:21;537.70;2406.40
49052;DHT22;34866;48.670;18.260;2022-08-19T00:45:47;512.90;2380.80
49052;DHT22;34866;48.670;18.260;2022-08-19T00:48:17;537.60;2406.40
49052;DHT22;34866;48.670;18.260;2022-08-19T00:51:03;512.90;2380.80
49052;DHT22;34866;48.670;18.260;2022-08-19T00:53:32;512.70;2380.80
49052;DHT22;34866;48.670;18.260;2022-08-19T00:56:22;512.70;2380.80
49052;DHT22;34866;48.670;18.260;2022-08-19T00:58:48;512.70;2380.80
49052;DHT22;34866;48.670;18.260;2022-08-19T01:01:14;512.70;2380.80
49052;DHT22;34866;48.670;18.260;2022-08-19T01:03:40;512.60;2380.80
49052;DHT22;34866;48.670;18.260;2022-08-19T01:06:09;512.70;2380.80
49052;DHT22;34866;48.670;18.260;2022-08-19T01:08:35;512.60;2380.80
49052;DHT22;34866;48.670;18.260;2022-08-19T01:11:00;512.60;2380.80
49052;DHT22;34866;48.670;18.260;2022-08-19T01:13:33;512.60;2380.80
49052;DHT22;34866;48.670;18.260;2022-08-19T01:16:25;512.30;2048.00
49052;DHT22;34866;48.670;18.260;2022-08-19T01:18:51;512.30;2176.00
49052;DHT22;34866;48.670;18.260;2022-08-19T01:21:40;512.50;2380.80
49052;DHT22;34866;48.670;18.260;2022-08-19T01:24:10;512.60;2380.80
49052;DHT22;34866;48.670;18.260;2022-08-19T01:26:44;512.60;2380.80
49052;DHT22;34866;48.670;18.260;2022-08-19T01:29:10;512.70;2380.80
49052;DHT22;34866;48.670;18.260;2022-08-19T01:31:39;512.50;2380.80
49052;DHT22;34866;48.670;18.260;2022-08-19T01:34:08;512.40;2022.40
49052;DHT22;34866;48.670;18.260;2022-08-19T01:36:39;512.20;2048.00
49052;DHT22;34866;48.670;18.260;2022-08-19T01:39:11;512.20;1996.80
49052;DHT22;34866;48.670;18.260;2022-08-19T01:41:38;512.20;2022.40
49052;DHT22;34866;48.670;18.260;2022-08-19T01:44:05;512.30;2073.60
49052;DHT22;34866;48.670;18.260;2022-08-19T01:46:32;512.10;2201.60
49052;DHT22;34866;48.670;18.260;2022-08-19T01:48:58;538.40;2329.60
49052;DHT22;34866;48.670;18.260;2022-08-19T01:51:28;512.10;2380.80
49052;DHT22;34866;48.670;18.260;2022-08-19T01:53:56;512.10;2380.80
49052;DHT22;34866;48.670;18.260;2022-08-19T01:56:46;512.20;2304.00
49052;DHT22;34866;48.670;18.260;2022-08-19T01:59:19;512.10;2278.40
49052;DHT22;34866;48.670;18.260;2022-08-19T02:01:45;512.10;2380.80
49052;DHT22;34866;48.670;18.260;2022-08-19T02:04:11;512.10;2329.60
49052;DHT22;34866;48.670;18.260;2022-08-19T02:06:37;512.30;2073.60
49052;DHT22;34866;48.670;18.260;2022-08-19T02:09:04;512.30;2099.20
49052;DHT22;34866;48.670;18.260;2022-08-19T02:11:33;512.10;2073.60
49052;DHT22;34866;48.670;18.260;2022-08-19T02:14:02;512.10;2227.20
49052;DHT22;34866;48.670;18.260;2022-08-19T02:16:28;512.10;2252.80
49052;DHT22;34866;48.670;18.260;2022-08-19T02:19:14;487.20;2380.80
49052;DHT22;34866;48.670;18.260;2022-08-19T02:21:40;487.20;2380.80
49052;DHT22;34866;48.670;18.260;2022-08-19T02:24:06;487.30;2380.80
49052;DHT22;34866;48.670;18.260;2022-08-19T02:26:35;487.10;2380.80
49052;DHT22;34866;48.670;18.260;2022-08-19T02:29:01;487.10;2380.80
49052;DHT22;34866;48.670;18.260;2022-08-19T02:31:27;487.10;2380.80
49052;DHT22;34866;48.670;18.260;2022-08-19T02:33:54;487.10;2380.80
49052;DHT22;34866;48.670;18.260;2022-08-19T02:36:22;487.10;2380.80
49052;DHT22;34866;48.670;18.260;2022-08-19T02:38:49;512.00;2380.80
49052;DHT22;34866;48.670;18.260;2022-08-19T02:41:21;487.30;2380.80
49052;DHT22;34866;48.670;18.260;2022-08-19T02:43:48;487.30;2380.80
49052;DHT22;34866;48.670;18.260;2022-08-19T02:46:29;512.00;2380.80
49052;DHT22;34866;48.670;18.260;2022-08-19T02:49:01;487.20;2380.80
49052;DHT22;34866;48.670;18.260;2022-08-19T02:51:33;487.30;2380.80
49052;DHT22;34866;48.670;18.260;2022-08-19T02:53:59;512.00;2380.80
49052;DHT22;34866;48.670;18.260;2022-08-19T02:56:25;512.10;2252.80
49052;DHT22;34866;48.670;18.260;2022-08-19T02:58:55;512.10;2304.00
49052;DHT22;34866;48.670;18.260;2022-08-19T03:01:26;512.30;2099.20
49052;DHT22;34866;48.670;18.260;2022-08-19T03:03:53;487.30;2380.80
49052;DHT22;34866;48.670;18.260;2022-08-19T03:06:19;487.30;2380.80
49052;DHT22;34866;48.670;18.260;2022-08-19T03:08:47;512.20;2099.20
49052;DHT22;34866;48.670;18.260;2022-08-19T03:11:20;512.10;2252.80
49052;DHT22;34866;48.670;18.260;2022-08-19T03:13:48;512.10;2329.60
49052;DHT22;34866;48.670;18.260;2022-08-19T03:16:20;512.20;2278.40
49052;DHT22;34866;48.670;18.260;2022-08-19T03:18:50;512.20;2278.40
49052;DHT22;34866;48.670;18.260;2022-08-19T03:21:23;512.20;2380.80
49052;DHT22;34866;48.670;18.260;2022-08-19T03:23:57;512.10;2380.80
49052;DHT22;34866;48.670;18.260;2022-08-19T03:26:23;512.00;2380.80
49052;DHT22;34866;48.670;18.260;2022-08-19T03:28:49;512.10;2380.80
49052;DHT22;34866;48.670;18.260;2022-08-19T03:31:19;487.30;2380.80
49052;DHT22;34866;48.670;18.260;2022-08-19T03:33:45;487.20;2380.80
49052;DHT22;34866;48.670;18.260;2022-08-19T03:36:13;487.10;2380.80
49052;DHT22;34866;48.670;18.260;2022-08-19T03:38:42;486.90;2380.80
49052;DHT22;34866;48.670;18.260;2022-08-19T03:41:12;487.10;2380.80
49052;DHT22;34866;48.670;18.260;2022-08-19T03:43:40;487.00;2380.80
49052;DHT22;34866;48.670;18.260;2022-08-19T03:46:12;512.70;2380.80
49052;DHT22;34866;48.670;18.260;2022-08-19T03:48:39;487.10;2380.80
49052;DHT22;34866;48.670;18.260;2022-08-19T03:51:07;486.90;2380.80
49052;DHT22;34866;48.670;18.260;2022-08-19T03:53:34;486.90;2380.80
49052;DHT22;34866;48.670;18.260;2022-08-19T03:56:01;486.80;2380.80
49052;DHT22;34866;48.670;18.260;2022-08-19T03:58:30;486.80;2380.80
49052;DHT22;34866;48.670;18.260;2022-08-19T04:00:56;486.80;2380.80
49052;DHT22;34866;48.670;18.260;2022-08-19T04:03:26;486.80;2380.80
49052;DHT22;34866;48.670;18.260;2022-08-19T04:05:53;486.70;2380.80
49052;DHT22;34866;48.670;18.260;2022-08-19T04:08:24;486.80;2380.80
49052;DHT22;34866;48.670;18.260;2022-08-19T04:10:52;486.90;2380.80
49052;DHT22;34866;48.670;18.260;2022-08-19T04:13:21;486.90;2380.80
49052;DHT22;34866;48.670;18.260;2022-08-19T04:15:47;486.90;2380.80
49052;DHT22;34866;48.670;18.260;2022-08-19T04:18:17;487.00;2380.80
49052;DHT22;34866;48.670;18.260;2022-08-19T04:20:45;487.10;2380.80
49052;DHT22;34866;48.670;18.260;2022-08-19T04:23:12;486.90;2380.80
49052;DHT22;34866;48.670;18.260;2022-08-19T04:25:41;487.10;2380.80
49052;DHT22;34866;48.670;18.260;2022-08-19T04:28:09;487.00;2380.80
49052;DHT22;34866;48.670;18.260;2022-08-19T04:30:40;487.00;2380.80
49052;DHT22;34866;48.670;18.260;2022-08-19T04:33:09;487.10;2380.80
49052;DHT22;34866;48.670;18.260;2022-08-19T04:35:37;487.10;2380.80
49052;DHT22;34866;48.670;18.260;2022-08-19T04:38:04;487.10;2380.80
49052;DHT22;34866;48.670;18.260;2022-08-19T04:40:33;487.10;2380.80
49052;DHT22;34866;48.670;18.260;2022-08-19T04:43:19;487.10;2380.80
49052;DHT22;34866;48.670;18.260;2022-08-19T04:45:46;512.00;2380.80
49052;DHT22;34866;48.670;18.260;2022-08-19T04:48:12;512.10;2380.80
49052;DHT22;34866;48.670;18.260;2022-08-19T04:50:42;512.20;2380.80
49052;DHT22;34866;48.670;18.260;2022-08-19T04:53:10;512.20;2380.80
49052;DHT22;34866;48.670;18.260;2022-08-19T04:55:40;512.50;2380.80
49052;DHT22;34866;48.670;18.260;2022-08-19T04:58:06;512.60;2380.80
49052;DHT22;34866;48.670;18.260;2022-08-19T05:00:32;512.70;2380.80
49052;DHT22;34866;48.670;18.260;2022-08-19T05:02:58;512.80;2380.80
49052;DHT22;34866;48.670;18.260;2022-08-19T05:05:25;512.90;2380.80
49052;DHT22;34866;48.670;18.260;2022-08-19T05:07:51;537.60;2406.40
49052;DHT22;34866;48.670;18.260;2022-08-19T05:10:19;537.70;2406.40
49052;DHT22;34866;48.670;18.260;2022-08-19T05:12:47;537.80;2252.80
49052;DHT22;34866;48.670;18.260;2022-08-19T05:15:13;538.00;2304.00
49052;DHT22;34866;48.670;18.260;2022-08-19T05:17:39;538.00;2176.00
49052;DHT22;34866;48.670;18.260;2022-08-19T05:20:34;538.10;2048.00
49052;DHT22;34866;48.670;18.260;2022-08-19T05:23:25;538.20;2406.40
49052;DHT22;34866;48.670;18.260;2022-08-19T05:25:52;538.20;2150.40
49052;DHT22;34866;48.670;18.260;2022-08-19T05:28:19;538.30;2124.80
49052;DHT22;34866;48.670;18.260;2022-08-19T05:30:48;538.30;2124.80
49052;DHT22;34866;48.670;18.260;2022-08-19T05:33:18;538.40;2201.60
49052;DHT22;34866;48.670;18.260;2022-08-19T05:35:43;538.40;2406.40
49052;DHT22;34866;48.670;18.260;2022-08-19T05:38:12;563.20;2432.00
49052;DHT22;34866;48.670;18.260;2022-08-19T05:40:40;563.20;2432.00
49052;DHT22;34866;48.670;18.260;2022-08-19T05:43:07;563.20;2432.00
49052;DHT22;34866;48.670;18.260;2022-08-19T05:45:37;563.30;2432.00
49052;DHT22;34866;48.670;18.260;2022-08-19T05:48:08;563.40;2432.00
49052;DHT22;34866;48.670;18.260;2022-08-19T05:50:43;563.50;2432.00
49052;DHT22;34866;48.670;18.260;2022-08-19T05:53:10;563.70;2432.00
49052;DHT22;34866;48.670;18.260;2022-08-19T05:55:40;563.90;2432.00
49052;DHT22;34866;48.670;18.260;2022-08-19T05:58:07;563.90;2432.00
49052;DHT22;34866;48.670;18.260;2022-08-19T06:00:36;563.90;2432.00
49052;DHT22;34866;48.670;18.260;2022-08-19T06:03:02;564.00;2432.00
49052;DHT22;34866;48.670;18.260;2022-08-19T06:05:30;564.10;2432.00
49052;DHT22;34866;48.670;18.260;2022-08-19T06:07:57;588.80;2432.00
49052;DHT22;34866;48.670;18.260;2022-08-19T06:10:24;588.90;2432.00
49052;DHT22;34866;48.670;18.260;2022-08-19T06:12:52;589.10;2432.00
49052;DHT22;34866;48.670;18.260;2022-08-19T06:15:18;589.20;2432.00
49052;DHT22;34866;48.670;18.260;2022-08-19T06:18:06;589.40;2432.00
49052;DHT22;34866;48.670;18.260;2022-08-19T06:20:32;589.50;2432.00
49052;DHT22;34866;48.670;18.260;2022-08-19T06:22:59;589.60;2432.00
49052;DHT22;34866;48.670;18.260;2022-08-19T06:25:27;614.40;2432.00
49052;DHT22;34866;48.670;18.260;2022-08-19T06:28:01;614.50;2432.00
49052;DHT22;34866;48.670;18.260;2022-08-19T06:30:28;614.50;2432.00
49052;DHT22;34866;48.670;18.260;2022-08-19T06:32:57;614.70;2432.00
49052;DHT22;34866;48.670;18.260;2022-08-19T06:35:23;614.90;2432.00
49052;DHT22;34866;48.670;18.260;2022-08-19T06:37:49;615.20;2432.00
49052;DHT22;34866;48.670;18.260;2022-08-19T06:40:15;615.30;2432.00
49052;DHT22;34866;48.670;18.260;2022-08-19T06:42:42;640.10;2432.00
49052;DHT22;34866;48.670;18.260;2022-08-19T06:45:10;640.30;2432.00
49052;DHT22;34866;48.670;18.260;2022-08-19T06:47:36;640.40;2432.00
49052;DHT22;34866;48.670;18.260;2022-08-19T06:50:03;640.50;2432.00
49052;DHT22;34866;48.670;18.260;2022-08-19T06:52:48;640.70;2432.00
49052;DHT22;34866;48.670;18.260;2022-08-19T06:55:15;640.70;2432.00
49052;DHT22;34866;48.670;18.260;2022-08-19T06:57:42;640.90;2432.00
49052;DHT22;34866;48.670;18.260;2022-08-19T07:00:12;640.90;2432.00
49052;DHT22;34866;48.670;18.260;2022-08-19T07:02:43;665.70;2432.00
49052;DHT22;34866;48.670;18.260;2022-08-19T07:05:09;666.20;2432.00
49052;DHT22;34866;48.670;18.260;2022-08-19T07:07:35;666.10;2432.00
49052;DHT22;34866;48.670;18.260;2022-08-19T07:10:03;666.40;2432.00
49052;DHT22;34866;48.670;18.260;2022-08-19T07:12:32;691.50;1971.20
49052;DHT22;34866;48.670;18.260;2022-08-19T07:14:59;692.00;2048.00
49052;DHT22;34866;48.670;18.260;2022-08-19T07:17:27;717.10;1612.80
49052;DHT22;34866;48.670;18.260;2022-08-19T07:20:03;717.20;1510.40
49052;DHT22;34866;48.670;18.260;2022-08-19T07:22:47;717.20;1433.60
49052;DHT22;34866;48.670;18.260;2022-08-19T07:25:57;717.30;1433.60
49052;DHT22;34866;48.670;18.260;2022-08-19T07:28:23;717.50;1382.40
49052;DHT22;34866;48.670;18.260;2022-08-19T07:31:06;717.30;1382.40
49052;DHT22;34866;48.670;18.260;2022-08-19T07:33:33;717.50;1356.80
49052;DHT22;34866;48.670;18.260;2022-08-19T07:36:15;717.40;1331.20
49052;DHT22;34866;48.670;18.260;2022-08-19T07:39:18;717.20;1382.40
49052;DHT22;34866;48.670;18.260;2022-08-19T07:41:45;717.30;1305.60
49052;DHT22;34866;48.670;18.260;2022-08-19T07:44:14;717.40;1280.00
49052;DHT22;34866;48.670;18.260;2022-08-19T07:47:08;717.60;1331.20
49052;DHT22;34866;48.670;18.260;2022-08-19T07:49:58;717.70;1254.40
49052;DHT22;34866;48.670;18.260;2022-08-19T07:52:37;742.50;1356.80
49052;DHT22;34866;48.670;18.260;2022-08-19T07:55:26;742.60;1305.60
49052;DHT22;34866;48.670;18.260;2022-08-19T07:57:56;742.80;1254.40
49052;DHT22;34866;48.670;18.260;2022-08-19T08:00:26;742.90;1228.80
49052;DHT22;34866;48.670;18.260;2022-08-19T08:02:55;743.10;1203.20
49052;DHT22;34866;48.670;18.260;2022-08-19T08:05:22;768.10;1228.80
49052;DHT22;34866;48.670;18.260;2022-08-19T08:08:07;743.10;1152.00
49052;DHT22;34866;48.670;18.260;2022-08-19T08:10:51;768.10;1177.60
49052;DHT22;34866;48.670;18.260;2022-08-19T08:13:18;743.20;1177.60
49052;DHT22;34866;48.670;18.260;2022-08-19T08:16:09;743.30;1203.20
49052;DHT22;34866;48.670;18.260;2022-08-19T08:18:35;743.10;1177.60
49052;DHT22;34866;48.670;18.260;2022-08-19T08:21:22;743.20;1152.00
49052;DHT22;34866;48.670;18.260;2022-08-19T08:23:47;743.30;1177.60
49052;DHT22;34866;48.670;18.260;2022-08-19T08:26:14;768.20;1177.60
49052;DHT22;34866;48.670;18.260;2022-08-19T08:29:05;768.20;1100.80
49052;DHT22;34866;48.670;18.260;2022-08-19T08:31:32;768.20;1100.80
49052;DHT22;34866;48.670;18.260;2022-08-19T08:34:05;768.20;1100.80
49052;DHT22;34866;48.670;18.260;2022-08-19T08:37:15;768.60;1100.80
49052;DHT22;34866;48.670;18.260;2022-08-19T08:39:55;793.80;1126.40
49052;DHT22;34866;48.670;18.260;2022-08-19T08:45:49;768.70;1049.60
49052;DHT22;34866;48.670;18.260;2022-08-19T08:51:29;793.90;1024.00
49052;DHT22;34866;48.670;18.260;2022-08-19T08:53:59;794.00;1024.00
49052;DHT22;34866;48.670;18.260;2022-08-19T08:56:26;793.70;1049.60
49052;DHT22;34866;48.670;18.260;2022-08-19T08:59:28;768.90;998.40
49052;DHT22;34866;48.670;18.260;2022-08-19T09:01:59;793.80;998.40
49052;DHT22;34866;48.670;18.260;2022-08-19T09:04:43;793.70;1024.00
49052;DHT22;34866;48.670;18.260;2022-08-19T09:16:17;794.00;972.80
49052;DHT22;34866;48.670;18.260;2022-08-19T09:18:51;794.10;972.80
49052;DHT22;34866;48.670;18.260;2022-08-19T09:21:24;794.20;998.40
49052;DHT22;34866;48.670;18.260;2022-08-19T09:23:51;794.30;947.20
49052;DHT22;34866;48.670;18.260;2022-08-19T09:26:20;794.30;972.80
49052;DHT22;34866;48.670;18.260;2022-08-19T09:28:53;794.50;972.80
49052;DHT22;34866;48.670;18.260;2022-08-19T09:31:22;819.20;947.20
49052;DHT22;34866;48.670;18.260;2022-08-19T09:34:15;794.40;947.20
49052;DHT22;34866;48.670;18.260;2022-08-19T09:36:42;819.30;947.20
49052;DHT22;34866;48.670;18.260;2022-08-19T09:39:16;819.50;947.20
49052;DHT22;34866;48.670;18.260;2022-08-19T09:41:42;819.60;870.40
49052;DHT22;34866;48.670;18.260;2022-08-19T09:44:13;820.00;844.80
49052;DHT22;34866;48.670;18.260;2022-08-19T09:46:42;820.10;870.40
49052;DHT22;34866;48.670;18.260;2022-08-19T09:49:28;820.10;844.80
49052;DHT22;34866;48.670;18.260;2022-08-19T09:51:55;845.00;844.80
49052;DHT22;34866;48.670;18.260;2022-08-19T09:54:22;844.90;819.20
49052;DHT22;34866;48.670;18.260;2022-08-19T09:56:48;820.10;793.60
49052;DHT22;34866;48.670;18.260;2022-08-19T09:59:14;820.10;793.60
49052;DHT22;34866;48.670;18.260;2022-08-19T10:01:42;844.80;768.00
49052;DHT22;34866;48.670;18.260;2022-08-19T10:04:08;845.00;819.20
49052;DHT22;34866;48.670;18.260;2022-08-19T10:06:36;845.00;793.60
49052;DHT22;34866;48.670;18.260;2022-08-19T10:09:09;845.30;793.60
49052;DHT22;34866;48.670;18.260;2022-08-19T10:11:39;845.10;768.00
49052;DHT22;34866;48.670;18.260;2022-08-19T10:14:05;845.60;768.00
49052;DHT22;34866;48.670;18.260;2022-08-19T10:16:31;845.50;768.00
49052;DHT22;34866;48.670;18.260;2022-08-19T10:18:57;845.20;768.00
49052;DHT22;34866;48.670;18.260;2022-08-19T10:21:26;870.50;742.40
49052;DHT22;34866;48.670;18.260;2022-08-19T10:23:57;845.20;742.40
49052;DHT22;34866;48.670;18.260;2022-08-19T10:26:29;845.10;768.00
49052;DHT22;34866;48.670;18.260;2022-08-19T10:28:56;845.10;768.00
49052;DHT22;34866;48.670;18.260;2022-08-19T10:31:28;844.80;768.00
49052;DHT22;34866;48.670;18.260;2022-08-19T10:34:20;845.00;768.00
49052;DHT22;34866;48.670;18.260;2022-08-19T10:36:46;845.00;716.80
49052;DHT22;34866;48.670;18.260;2022-08-19T10:39:11;845.00;742.40
49052;DHT22;34866;48.670;18.260;2022-08-19T10:41:39;845.20;742.40
49052;DHT22;34866;48.670;18.260;2022-08-19T10:44:26;845.70;716.80
49052;DHT22;34866;48.670;18.260;2022-08-19T10:47:31;845.20;716.80
49052;DHT22;34866;48.670;18.260;2022-08-19T10:49:56;845.50;716.80
49052;DHT22;34866;48.670;18.260;2022-08-19T10:52:44;845.40;691.20
49052;DHT22;34866;48.670;18.260;2022-08-19T10:55:15;845.60;691.20
49052;DHT22;34866;48.670;18.260;2022-08-19T10:58:00;845.70;691.20
49052;DHT22;34866;48.670;18.260;2022-08-19T11:01:10;845.70;716.80
49052;DHT22;34866;48.670;18.260;2022-08-19T11:03:37;845.50;691.20
49052;DHT22;34866;48.670;18.260;2022-08-19T11:06:12;845.60;716.80
49052;DHT22;34866;48.670;18.260;2022-08-19T11:08:39;845.60;665.60
49052;DHT22;34866;48.670;18.260;2022-08-19T11:11:15;845.70;665.60
49052;DHT22;34866;48.670;18.260;2022-08-19T11:14:11;845.40;665.60
49052;DHT22;34866;48.670;18.260;2022-08-19T11:17:29;845.20;665.60
49052;DHT22;34866;48.670;18.260;2022-08-19T11:19:57;845.20;665.60
49052;DHT22;34866;48.670;18.260;2022-08-19T11:22:22;845.50;716.80
49052;DHT22;34866;48.670;18.260;2022-08-19T11:24:48;845.70;665.60
49052;DHT22;34866;48.670;18.260;2022-08-19T11:27:38;845.60;665.60
49052;DHT22;34866;48.670;18.260;2022-08-19T11:30:05;845.70;691.20
49052;DHT22;34866;48.670;18.260;2022-08-19T11:32:33;845.70;665.60
49052;DHT22;34866;48.670;18.260;2022-08-19T11:34:59;870.40;640.00
49052;DHT22;34866;48.670;18.260;2022-08-19T11:37:30;845.70;691.20
49052;DHT22;34866;48.670;18.260;2022-08-19T11:39:57;870.40;691.20
49052;DHT22;34866;48.670;18.260;2022-08-19T11:42:24;870.40;691.20
49052;DHT22;34866;48.670;18.260;2022-08-19T11:45:08;845.70;665.60
49052;DHT22;34866;48.670;18.260;2022-08-19T11:47:34;845.60;691.20
49052;DHT22;34866;48.670;18.260;2022-08-19T11:50:00;870.70;640.00
49052;DHT22;34866;48.670;18.260;2022-08-19T11:52:25;871.10;640.00
49052;DHT22;34866;48.670;18.260;2022-08-19T11:54:51;871.10;614.40
49052;DHT22;34866;48.670;18.260;2022-08-19T11:57:17;870.70;614.40
49052;DHT22;34866;48.670;18.260;2022-08-19T11:59:50;870.80;640.00
49052;DHT22;34866;48.670;18.260;2022-08-19T12:02:20;896.20;563.20
49052;DHT22;34866;48.670;18.260;2022-08-19T12:04:49;896.40;588.80
49052;DHT22;34866;48.670;18.260;2022-08-19T12:07:18;896.70;563.20
49052;DHT22;34866;48.670;18.260;2022-08-19T12:09:44;896.60;537.60
49052;DHT22;34866;48.670;18.260;2022-08-19T12:12:09;896.50;537.60
49052;DHT22;34866;48.670;18.260;2022-08-19T12:14:35;896.40;537.60
49052;DHT22;34866;48.670;18.260;2022-08-19T12:17:02;896.20;537.60
49052;DHT22;34866;48.670;18.260;2022-08-19T12:19:30;896.50;537.60
49052;DHT22;34866;48.670;18.260;2022-08-19T12:22:01;896.40;537.60
49052;DHT22;34866;48.670;18.260;2022-08-19T12:24:31;896.40;537.60
49052;DHT22;34866;48.670;18.260;2022-08-19T12:26:59;896.00;537.60
49052;DHT22;34866;48.670;18.260;2022-08-19T12:29:27;896.00;537.60
49052;DHT22;34866;48.670;18.260;2022-08-19T12:31:56;896.80;512.00
49052;DHT22;34866;48.670;18.260;2022-08-19T12:34:27;896.70;512.00
49052;DHT22;34866;48.670;18.260;2022-08-19T12:36:57;896.90;512.00
49052;DHT22;34866;48.670;18.260;2022-08-19T12:39:23;896.70;512.00
49052;DHT22;34866;48.670;18.260;2022-08-19T12:41:49;896.30;537.60
49052;DHT22;34866;48.670;18.260;2022-08-19T12:44:15;896.10;537.60
49052;DHT22;34866;48.670;18.260;2022-08-19T12:46:40;871.30;537.60
49052;DHT22;34866;48.670;18.260;2022-08-19T12:49:08;896.00;512.00
49052;DHT22;34866;48.670;18.260;2022-08-19T12:51:36;871.00;512.00
49052;DHT22;34866;48.670;18.260;2022-08-19T12:54:05;871.00;512.00
49052;DHT22;34866;48.670;18.260;2022-08-19T12:56:32;871.30;512.00
49052;DHT22;34866;48.670;18.260;2022-08-19T12:59:02;896.10;512.00
49052;DHT22;34866;48.670;18.260;2022-08-19T13:01:28;896.00;512.00
49052;DHT22;34866;48.670;18.260;2022-08-19T13:03:58;871.20;512.00
49052;DHT22;34866;48.670;18.260;2022-08-19T13:06:25;871.30;537.60
49052;DHT22;34866;48.670;18.260;2022-08-19T13:08:50;896.70;512.00
49052;DHT22;34866;48.670;18.260;2022-08-19T13:11:19;896.80;486.40
49052;DHT22;34866;48.670;18.260;2022-08-19T13:13:47;896.20;486.40
49052;DHT22;34866;48.670;18.260;2022-08-19T13:16:15;871.30;486.40
49052;DHT22;34866;48.670;18.260;2022-08-19T13:18:42;871.10;486.40
49052;DHT22;34866;48.670;18.260;2022-08-19T13:21:10;871.10;486.40
49052;DHT22;34866;48.670;18.260;2022-08-19T13:23:40;896.00;512.00
49052;DHT22;34866;48.670;18.260;2022-08-19T13:26:12;871.10;512.00
49052;DHT22;34866;48.670;18.260;2022-08-19T13:28:40;870.70;512.00
49052;DHT22;34866;48.670;18.260;2022-08-19T13:31:28;870.70;537.60
49052;DHT22;34866;48.670;18.260;2022-08-19T13:34:13;870.60;537.60
49052;DHT22;34866;48.670;18.260;2022-08-19T13:36:39;870.60;563.20
49052;DHT22;34866;48.670;18.260;2022-08-19T13:39:07;845.70;563.20
49052;DHT22;34866;48.670;18.260;2022-08-19T13:41:35;870.50;563.20
49052;DHT22;34866;48.670;18.260;2022-08-19T13:44:02;870.80;563.20
49052;DHT22;34866;48.670;18.260;2022-08-19T13:46:28;844.80;563.20
49052;DHT22;34866;48.670;18.260;2022-08-19T13:48:56;845.50;537.60
49052;DHT22;34866;48.670;18.260;2022-08-19T13:51:25;845.30;537.60
49052;DHT22;34866;48.670;18.260;2022-08-19T13:54:00;845.30;563.20
49052;DHT22;34866;48.670;18.260;2022-08-19T13:56:26;845.20;563.20
49052;DHT22;34866;48.670;18.260;2022-08-19T13:58:54;845.20;563.20
49052;DHT22;34866;48.670;18.260;2022-08-19T14:01:21;845.20;588.80
49052;DHT22;34866;48.670;18.260;2022-08-19T14:04:03;845.10;588.80
49052;DHT22;34866;48.670;18.260;2022-08-19T14:06:31;870.50;588.80
49052;DHT22;34866;48.670;18.260;2022-08-19T14:08:57;845.00;588.80
49052;DHT22;34866;48.670;18.260;2022-08-19T14:11:25;820.10;588.80
49052;DHT22;34866;48.670;18.260;2022-08-19T14:13:52;793.90;819.20
49052;DHT22;34866;48.670;18.260;2022-08-19T14:16:18;743.10;1049.60
49052;DHT22;34866;48.670;18.260;2022-08-19T14:18:44;717.50;1408.00
49052;DHT22;34866;48.670;18.260;2022-08-19T21:13:17;512.70;2380.80
49052;DHT22;34866;48.670;18.260;2022-08-19T21:15:50;512.30;2380.80
49052;DHT22;34866;48.670;18.260;2022-08-19T21:18:42;512.30;2380.80
49052;DHT22;34866;48.670;18.260;2022-08-19T21:21:30;512.30;2380.80
49052;DHT22;34866;48.670;18.260;2022-08-19T21:24:00;512.40;2380.80
49052;DHT22;34866;48.670;18.260;2022-08-19T21:26:50;512.40;2380.80
49052;DHT22;34866;48.670;18.260;2022-08-19T21:29:16;512.50;2380.80
49052;DHT22;34866;48.670;18.260;2022-08-19T21:32:01;512.50;2380.80
49052;DHT22;34866;48.670;18.260;2022-08-19T21:34:26;512.40;2380.80
49052;DHT22;34866;48.670;18.260;2022-08-19T21:36:53;512.20;2380.80
49052;DHT22;34866;48.670;18.260;2022-08-19T21:39:44;512.30;2380.80
49052;DHT22;34866;48.670;18.260;2022-08-19T21:42:33;512.10;2380.80
49052;DHT22;34866;48.670;18.260;2022-08-19T21:45:49;512.20;2380.80
49052;DHT22;34866;48.670;18.260;2022-08-19T21:48:36;512.20;2380.80
49052;DHT22;34866;48.670;18.260;2022-08-19T21:51:26;512.10;2380.80
49052;DHT22;34866;48.670;18.260;2022-08-19T21:54:12;487.30;2380.80
49052;DHT22;34866;48.670;18.260;2022-08-19T21:57:24;512.10;2380.80
49052;DHT22;34866;48.670;18.260;2022-08-19T22:00:37;512.40;2380.80
49052;DHT22;34866;48.670;18.260;2022-08-19T22:04:07;512.30;2380.80
49052;DHT22;34866;48.670;18.260;2022-08-19T22:07:17;512.20;2380.80
49052;DHT22;34866;48.670;18.260;2022-08-19T22:10:05;512.20;2380.80
49052;DHT22;34866;48.670;18.260;2022-08-19T22:12:51;512.30;2380.80
49052;DHT22;34866;48.670;18.260;2022-08-19T22:16:11;563.20;2432.00